Time;durP1;ratioP1;P1;durP2;ratioP2;P2;SDS_P1;SDS_P2;PMS_P1;PMS_P2;Temp;Humidity;BMP_temperature;BMP_pressure;BME280_temperature;BME280_humidity;BME280_pressure;Samples;Min_cycle;Max_cycle;Signal;HPM_P1;HPM_P2
2023/01/22 00:02:26;;;;;;;84.30;44.10;;;;;;;-0.41;100.00;98522.81;110071;1234;59191;-79
2023/01/22 00:04:52;;;;;;;93.40;47.90;;;;;;;-0.39;100.00;98527.94;109394;1232;59191;-79
2023/01/22 00:07:19;;;;;;;76.80;41.70;;;;;;;-0.38;100.00;98533.27;110173;1235;59104;-77
2023/01/22 00:09:45;;;;;;;65.10;34.50;;;;;;;-0.38;100.00;98532.37;110337;1232;60320;-80
2023/01/22 00:12:12;;;;;;;61.20;30.30;;;;;;;-0.36;100.00;98537.04;109832;1234;61243;-79
2023/01/22 00:14:39;;;;;;;59.70;32.40;;;;;;;-0.34;100.00;98543.87;109036;1232;59204;-79
2023/01/22 00:17:05;;;;;;;77.10;39.60;;;;;;;-0.36;100.00;98539.91;110276;1232;71262;-77
2023/01/22 00:19:32;;;;;;;75.20;40.80;;;;;;;-0.38;100.00;98537.36;110334;1235;59042;-77
2023/01/22 00:21:58;;;;;;;75.90;38.80;;;;;;;-0.39;100.00;98544.04;109357;1233;58855;-77
2023/01/22 00:24:25;;;;;;;74.70;40.50;;;;;;;-0.44;100.00;98545.69;109555;1232;72448;-77
2023/01/22 00:26:51;;;;;;;70.80;39.10;;;;;;;-0.43;100.00;98546.70;110156;1231;60414;-80
2023/01/22 00:29:18;;;;;;;81.10;43.30;;;;;;;-0.42;100.00;98551.89;110218;1234;60012;-77
2023/01/22 00:31:44;;;;;;;72.50;42.00;;;;;;;-0.44;100.00;98549.52;109290;1237;58853;-79
2023/01/22 00:34:10;;;;;;;81.20;45.30;;;;;;;-0.46;100.00;98544.89;109718;1233;59013;-77
2023/01/22 00:36:39;;;;;;;68.50;36.60;;;;;;;-0.44;100.00;98543.79;109278;1234;59303;-77
2023/01/22 00:39:06;;;;;;;56.80;31.70;;;;;;;-0.47;100.00;98545.09;110863;1234;69932;-79
2023/01/22 00:41:32;;;;;;;74.40;37.30;;;;;;;-0.48;100.00;98541.73;109624;1232;61169;-80
2023/01/22 00:43:59;;;;;;;141.10;65.40;;;;;;;-0.46;100.00;98536.63;109716;1232;60034;-77
2023/01/22 00:46:25;;;;;;;118.20;56.80;;;;;;;-0.43;100.00;98536.21;109528;1233;59943;-79
2023/01/22 00:48:52;;;;;;;101.30;51.40;;;;;;;-0.42;100.00;98537.27;111473;1232;58393;-79
2023/01/22 00:51:18;;;;;;;91.20;50.10;;;;;;;-0.42;100.00;98539.44;109916;1232;60387;-79
2023/01/22 00:53:44;;;;;;;81.00;46.20;;;;;;;-0.41;100.00;98537.45;109582;1234;59061;-80
2023/01/22 00:56:11;;;;;;;97.50;48.10;;;;;;;-0.40;100.00;98537.20;110127;1236;60451;-77
2023/01/22 00:58:39;;;;;;;70.80;38.50;;;;;;;-0.39;100.00;98535.03;111119;1235;58662;-79
2023/01/22 01:01:05;;;;;;;80.00;39.10;;;;;;;-0.39;100.00;98540.23;109862;1232;73624;-77
2023/01/22 01:03:32;;;;;;;75.40;36.10;;;;;;;-0.39;100.00;98546.66;109392;1232;71239;-79
2023/01/22 01:06:01;;;;;;;61.40;31.80;;;;;;;-0.39;100.00;98548.02;109332;1232;72736;-79
2023/01/22 01:08:28;;;;;;;60.30;33.40;;;;;;;-0.39;100.00;98553.79;110630;1232;59496;-78
2023/01/22 01:11:03;;;;;;;73.60;39.70;;;;;;;-0.38;100.00;98555.96;110293;1232;60737;-77
2023/01/22 01:13:31;;;;;;;85.10;44.20;;;;;;;-0.39;100.00;98557.77;109883;1233;72571;-79
2023/01/22 01:16:02;;;;;;;85.70;43.90;;;;;;;-0.40;100.00;98552.98;109837;1236;70546;-79
2023/01/22 01:18:29;;;;;;;108.50;57.60;;;;;;;-0.40;100.00;98555.23;110667;1232;62763;-79
2023/01/22 01:20:56;;;;;;;104.90;50.40;;;;;;;-0.40;100.00;98555.21;109315;1234;58955;-79
2023/01/22 01:23:23;;;;;;;102.50;52.30;;;;;;;-0.41;100.00;98556.90;110273;1233;60409;-77
2023/01/22 01:25:49;;;;;;;94.80;47.70;;;;;;;-0.39;100.00;98557.02;109962;1232;73621;-80
2023/01/22 01:28:16;;;;;;;85.30;43.20;;;;;;;-0.35;100.00;98561.09;110465;1235;59910;-77
2023/01/22 01:30:43;;;;;;;97.60;52.90;;;;;;;-0.33;100.00;98562.52;109245;1234;72466;-77
2023/01/22 01:33:10;;;;;;;99.70;53.20;;;;;;;-0.32;100.00;98563.51;109735;1232;60440;-79
2023/01/22 01:35:36;;;;;;;101.10;54.30;;;;;;;-0.32;100.00;98568.88;109064;1232;60414;-77
2023/01/22 01:38:02;;;;;;;95.30;51.20;;;;;;;-0.32;100.00;98575.63;110356;1232;60400;-77
2023/01/22 01:40:29;;;;;;;94.50;50.10;;;;;;;-0.31;100.00;98575.10;109652;1232;60504;-79
2023/01/22 01:42:55;;;;;;;100.50;54.00;;;;;;;-0.31;100.00;98578.54;109697;1232;58656;-77
2023/01/22 01:45:26;;;;;;;100.90;51.80;;;;;;;-0.32;100.00;98575.55;109401;1236;60117;-79
2023/01/22 01:48:06;;;;;;;97.70;48.50;;;;;;;-0.29;100.00;98577.56;110937;1234;61176;-77
2023/01/22 01:50:33;;;;;;;92.20;53.20;;;;;;;-0.31;100.00;98582.23;109601;1232;71641;-77
2023/01/22 01:52:59;;;;;;;109.30;53.60;;;;;;;-0.30;100.00;98580.02;109853;1237;60404;-79
2023/01/22 01:55:27;;;;;;;102.10;57.20;;;;;;;-0.30;100.00;98579.65;109189;1232;60314;-79
2023/01/22 01:57:55;;;;;;;79.50;46.20;;;;;;;-0.26;100.00;98581.27;110923;1232;59204;-77
2023/01/22 02:00:22;;;;;;;78.80;44.40;;;;;;;-0.24;100.00;98584.00;109855;1233;59174;-77
2023/01/22 02:02:48;;;;;;;71.40;36.80;;;;;;;-0.22;100.00;98587.52;109329;1232;60436;-77
2023/01/22 02:05:19;;;;;;;65.10;35.70;;;;;;;-0.21;100.00;98588.27;109325;1234;58967;-79
2023/01/22 02:07:46;;;;;;;55.00;30.30;;;;;;;-0.24;100.00;98591.66;110203;1233;72096;-77
2023/01/22 02:10:13;;;;;;;66.50;35.60;;;;;;;-0.24;100.00;98589.70;109910;1232;60046;-79
2023/01/22 02:12:39;;;;;;;72.70;36.50;;;;;;;-0.26;100.00;98591.02;109821;1234;59949;-79
2023/01/22 02:15:06;;;;;;;66.90;33.90;;;;;;;-0.26;100.00;98590.29;110088;1232;71804;-79
2023/01/22 02:17:33;;;;;;;75.50;40.10;;;;;;;-0.25;100.00;98586.33;109868;1234;70186;-77
2023/01/22 02:19:59;;;;;;;68.80;39.00;;;;;;;-0.25;100.00;98584.02;109388;1233;61170;-78
2023/01/22 02:22:28;;;;;;;71.30;40.60;;;;;;;-0.27;100.00;98579.57;109302;1235;61498;-80
2023/01/22 02:24:54;;;;;;;71.70;36.70;;;;;;;-0.26;100.00;98579.79;109209;1237;60099;-79
2023/01/22 02:27:20;;;;;;;74.80;39.50;;;;;;;-0.26;100.00;98578.92;110356;1237;58972;-77
2023/01/22 02:29:47;;;;;;;90.40;46.70;;;;;;;-0.26;100.00;98573.97;110296;1235;60156;-79
2023/01/22 02:32:13;;;;;;;80.80;39.50;;;;;;;-0.30;100.00;98573.18;109121;1235;60070;-77
2023/01/22 02:34:39;;;;;;;84.20;41.20;;;;;;;-0.32;100.00;98576.40;109345;1236;60157;-77
2023/01/22 02:37:06;;;;;;;171.20;84.20;;;;;;;-0.36;100.00;98583.05;110373;1232;60807;-80
2023/01/22 02:39:32;;;;;;;72.10;39.20;;;;;;;-0.35;100.00;98579.58;109908;1235;59949;-80
2023/01/22 02:41:59;;;;;;;59.80;34.80;;;;;;;-0.34;100.00;98583.83;109164;1234;60378;-77
2023/01/22 02:44:25;;;;;;;53.20;30.40;;;;;;;-0.34;100.00;98590.04;109853;1234;60133;-77
2023/01/22 02:46:52;;;;;;;36.90;20.10;;;;;;;-0.37;100.00;98589.61;110379;1234;60124;-77
2023/01/22 02:49:18;;;;;;;34.90;19.90;;;;;;;-0.40;100.00;98594.96;110777;1236;59097;-77
2023/01/22 02:51:44;;;;;;;51.60;28.30;;;;;;;-0.43;100.00;98596.04;109638;1236;59038;-77
2023/01/22 02:54:11;;;;;;;53.30;26.40;;;;;;;-0.44;100.00;98599.02;109377;1232;60899;-79
2023/01/22 02:56:37;;;;;;;54.80;25.90;;;;;;;-0.42;100.00;98601.78;109346;1236;60046;-79
2023/01/22 02:59:04;;;;;;;46.10;22.90;;;;;;;-0.39;100.00;98601.31;110991;1232;60389;-77
2023/01/22 03:01:30;;;;;;;42.80;23.10;;;;;;;-0.38;100.00;98603.00;109373;1234;60518;-77
2023/01/22 03:04:09;;;;;;;41.20;21.70;;;;;;;-0.41;100.00;98596.30;110532;1236;58858;-77
2023/01/22 03:06:40;;;;;;;39.50;21.70;;;;;;;-0.41;100.00;98591.85;109659;1233;69912;-79
2023/01/22 03:09:07;;;;;;;40.10;22.30;;;;;;;-0.38;100.00;98600.20;110807;1232;71329;-79
2023/01/22 03:11:34;;;;;;;44.50;22.60;;;;;;;-0.37;100.00;98601.20;109140;1234;58936;-79
2023/01/22 03:22:16;;;;;;;56.40;25.80;;;;;;;-0.29;100.00;98601.54;109325;1232;71344;-79
2023/01/22 03:24:42;;;;;;;57.10;26.40;;;;;;;-0.27;100.00;98599.82;109307;1241;59106;-77
2023/01/22 03:27:09;;;;;;;52.70;24.00;;;;;;;-0.30;100.00;98597.80;110231;1233;60144;-77
2023/01/22 03:29:38;;;;;;;45.00;22.70;;;;;;;-0.32;100.00;98595.35;110289;1234;58744;-77
2023/01/22 03:32:05;;;;;;;43.10;22.30;;;;;;;-0.32;100.00;98598.34;109269;1237;69875;-77
2023/01/22 03:34:31;;;;;;;40.70;21.30;;;;;;;-0.35;100.00;98599.48;109256;1233;59242;-77
2023/01/22 03:36:58;;;;;;;40.70;23.00;;;;;;;-0.40;100.00;98600.40;110237;1232;59441;-77
2023/01/22 03:39:25;;;;;;;45.10;23.50;;;;;;;-0.40;100.00;98595.78;110590;1237;58865;-79
2023/01/22 03:41:52;;;;;;;42.80;22.60;;;;;;;-0.39;100.00;98593.86;109948;1232;73595;-79
2023/01/22 03:44:18;;;;;;;37.40;21.80;;;;;;;-0.39;100.00;98595.09;109308;1234;60147;-77
2023/01/22 03:46:45;;;;;;;48.70;27.00;;;;;;;-0.40;100.00;98599.14;109664;1234;59924;-79
2023/01/22 03:49:11;;;;;;;45.40;25.60;;;;;;;-0.39;100.00;98599.47;110632;1235;58913;-79
2023/01/22 03:51:38;;;;;;;42.00;22.30;;;;;;;-0.43;100.00;98604.23;109184;1234;59706;-77
2023/01/22 03:54:04;;;;;;;43.60;21.70;;;;;;;-0.43;100.00;98604.52;109373;1232;61216;-79
2023/01/22 03:56:31;;;;;;;39.10;21.00;;;;;;;-0.42;100.00;98601.71;109348;1234;59290;-79
2023/01/22 03:58:57;;;;;;;37.90;20.50;;;;;;;-0.41;100.00;98603.52;110938;1238;58496;-77
2023/01/22 04:01:25;;;;;;;39.90;21.20;;;;;;;-0.43;100.00;98603.58;109056;1232;60510;-79
2023/01/22 04:03:52;;;;;;;42.30;21.20;;;;;;;-0.42;100.00;98603.52;109306;1237;59949;-77
2023/01/22 04:06:18;;;;;;;41.00;21.30;;;;;;;-0.42;100.00;98603.37;109176;1237;59966;-78
2023/01/22 04:08:46;;;;;;;43.70;21.80;;;;;;;-0.43;100.00;98601.23;111168;1234;62271;-77
2023/01/22 04:11:12;;;;;;;34.00;20.80;;;;;;;-0.41;100.00;98598.64;109558;1237;72462;-79
2023/01/22 04:13:40;;;;;;;49.40;25.70;;;;;;;-0.42;100.00;98598.39;109706;1233;60052;-79
2023/01/22 04:16:07;;;;;;;40.90;23.00;;;;;;;-0.48;100.00;98595.36;109390;1236;60404;-80
2023/01/22 04:18:34;;;;;;;52.00;24.40;;;;;;;-0.48;100.00;98591.14;110737;1237;72550;-79
2023/01/22 04:21:01;;;;;;;49.10;25.80;;;;;;;-0.51;100.00;98595.46;109350;1235;69982;-78
2023/01/22 04:23:27;;;;;;;64.20;35.00;;;;;;;-0.53;100.00;98597.15;109093;1232;60704;-80
2023/01/22 04:25:53;;;;;;;52.50;27.50;;;;;;;-0.53;100.00;98600.19;109264;1237;61216;-80
2023/01/22 04:28:20;;;;;;;149.20;90.70;;;;;;;-0.52;100.00;98595.31;111163;1231;58493;-79
2023/01/22 04:30:48;;;;;;;108.30;67.10;;;;;;;-0.53;100.00;98597.36;109181;1237;60426;-79
2023/01/22 04:33:14;;;;;;;140.80;88.50;;;;;;;-0.52;100.00;98598.97;109059;1237;61057;-79
2023/01/22 04:35:41;;;;;;;84.10;51.20;;;;;;;-0.55;100.00;98599.73;109419;1236;60018;-79
2023/01/22 04:38:08;;;;;;;109.60;72.00;;;;;;;-0.59;100.00;98603.71;111153;1233;59006;-77
2023/01/22 04:40:35;;;;;;;81.30;40.60;;;;;;;-0.61;100.00;98599.85;109441;1232;60056;-79
2023/01/22 04:43:02;;;;;;;66.40;37.20;;;;;;;-0.59;100.00;98598.23;109328;1237;60016;-79
2023/01/22 04:45:29;;;;;;;119.00;72.10;;;;;;;-0.56;100.00;98594.35;109381;1235;71104;-80
2023/01/22 04:47:56;;;;;;;88.40;47.10;;;;;;;-0.59;100.00;98600.58;110926;1235;59200;-77
2023/01/22 04:50:25;;;;;;;91.10;49.40;;;;;;;-0.62;100.00;98600.13;110132;1232;60652;-80
2023/01/22 04:52:52;;;;;;;83.60;46.50;;;;;;;-0.61;100.00;98601.33;109719;1237;58997;-79
2023/01/22 04:55:19;;;;;;;117.40;78.00;;;;;;;-0.65;100.00;98594.70;109380;1235;74770;-77
2023/01/22 04:57:45;;;;;;;96.40;55.20;;;;;;;-0.67;100.00;98588.64;110681;1232;71366;-81
2023/01/22 05:00:12;;;;;;;87.90;54.40;;;;;;;-0.70;100.00;98591.30;109854;1232;58970;-79
2023/01/22 05:02:38;;;;;;;63.60;34.60;;;;;;;-0.73;100.00;98594.02;109162;1237;58989;-79
2023/01/22 05:05:06;;;;;;;103.70;59.40;;;;;;;-0.77;100.00;98598.21;109238;1232;59045;-78
2023/01/22 05:07:32;;;;;;;72.10;39.20;;;;;;;-0.75;100.00;98604.58;110571;1232;73706;-80
2023/01/22 05:09:59;;;;;;;55.20;28.00;;;;;;;-0.77;100.00;98603.34;110446;1232;60403;-79
2023/01/22 05:12:25;;;;;;;69.70;34.50;;;;;;;-0.74;100.00;98606.40;109096;1232;60151;-79
2023/01/22 05:14:52;;;;;;;69.50;38.30;;;;;;;-0.76;100.00;98618.04;109014;1236;59292;-77
2023/01/22 05:17:19;;;;;;;67.30;36.70;;;;;;;-0.77;100.00;98629.66;110315;1232;59261;-77
2023/01/22 05:19:45;;;;;;;55.50;29.70;;;;;;;-0.78;100.00;98628.83;110264;1235;72585;-77
2023/01/22 05:22:12;;;;;;;59.50;27.80;;;;;;;-0.72;100.00;98627.90;109785;1236;60410;-79
2023/01/22 05:24:38;;;;;;;95.70;46.00;;;;;;;-0.72;100.00;98635.42;109227;1232;60522;-77
2023/01/22 05:27:05;;;;;;;85.20;41.10;;;;;;;-0.70;100.00;98642.95;109919;1238;60583;-79
2023/01/22 05:29:31;;;;;;;65.40;31.50;;;;;;;-0.69;100.00;98652.71;110684;1232;59965;-79
2023/01/22 05:31:58;;;;;;;75.90;37.50;;;;;;;-0.66;100.00;98647.90;109266;1232;59972;-79
2023/01/22 05:34:24;;;;;;;68.20;32.80;;;;;;;-0.68;100.00;98645.83;109531;1232;59020;-78
2023/01/22 05:36:51;;;;;;;53.30;28.10;;;;;;;-0.68;100.00;98646.01;110054;1232;61245;-80
2023/01/22 05:39:17;;;;;;;55.40;27.60;;;;;;;-0.67;100.00;98651.26;110378;1232;60512;-77
2023/01/22 05:41:44;;;;;;;59.10;30.80;;;;;;;-0.66;100.00;98645.27;109262;1237;60518;-80
2023/01/22 05:44:11;;;;;;;60.30;34.20;;;;;;;-0.62;100.00;98641.66;109185;1232;61373;-79
2023/01/22 05:46:37;;;;;;;57.30;28.70;;;;;;;-0.59;100.00;98636.16;109250;1237;69943;-79
2023/01/22 05:49:04;;;;;;;89.60;54.40;;;;;;;-0.59;100.00;98641.77;111453;1232;59471;-79
2023/01/22 05:51:30;;;;;;;50.70;29.40;;;;;;;-0.59;100.00;98640.95;109809;1237;59020;-77
2023/01/22 05:53:57;;;;;;;62.60;29.80;;;;;;;-0.63;100.00;98643.20;109905;1233;59603;-78
2023/01/22 05:56:23;;;;;;;57.50;26.90;;;;;;;-0.62;100.00;98636.25;109722;1241;61142;-80
2023/01/22 05:58:49;;;;;;;69.30;29.70;;;;;;;-0.69;100.00;98643.52;111241;1237;60246;-79
2023/01/22 06:01:16;;;;;;;50.90;24.80;;;;;;;-0.73;100.00;98644.36;109328;1238;59162;-79
2023/01/22 06:03:43;;;;;;;55.90;28.80;;;;;;;-0.72;100.00;98644.23;109319;1232;59008;-77
2023/01/22 06:06:10;;;;;;;57.30;28.10;;;;;;;-0.79;100.00;98644.50;109783;1232;60328;-77
2023/01/22 06:08:37;;;;;;;51.50;23.40;;;;;;;-0.80;100.00;98640.81;111167;1237;72529;-79
2023/01/22 06:11:05;;;;;;;56.60;29.40;;;;;;;-0.80;100.00;98640.36;109697;1232;60006;-79
2023/01/22 06:13:32;;;;;;;95.10;60.20;;;;;;;-0.78;100.00;98634.32;109597;1232;72421;-77
2023/01/22 06:15:59;;;;;;;58.40;33.10;;;;;;;-0.79;100.00;98637.75;109709;1232;61210;-79
2023/01/22 06:18:25;;;;;;;47.60;23.40;;;;;;;-0.83;100.00;98638.41;110978;1232;60398;-77
2023/01/22 06:20:52;;;;;;;57.70;29.40;;;;;;;-0.85;100.00;98637.91;109741;1236;73631;-79
2023/01/22 06:23:18;;;;;;;52.90;26.70;;;;;;;-0.80;100.00;98645.98;109535;1231;60414;-80
2023/01/22 06:25:51;;;;;;;56.10;25.00;;;;;;;-0.79;100.00;98649.66;109356;1232;59193;-77
2023/01/22 06:28:17;;;;;;;47.30;23.00;;;;;;;-0.78;100.00;98657.94;111025;1236;58881;-77
2023/01/22 06:30:43;;;;;;;44.50;23.20;;;;;;;-0.78;100.00;98660.08;109478;1231;60963;-77
2023/01/22 06:33:10;;;;;;;43.90;21.50;;;;;;;-0.79;100.00;98656.33;109901;1232;60047;-77
2023/01/22 06:35:36;;;;;;;46.00;21.80;;;;;;;-0.80;100.00;98646.17;109951;1235;60001;-79
2023/01/22 06:38:03;;;;;;;51.50;24.70;;;;;;;-0.79;100.00;98643.06;111148;1232;60391;-79
2023/01/22 06:40:30;;;;;;;100.10;40.20;;;;;;;-0.83;100.00;98642.47;109290;1231;61169;-79
2023/01/22 06:42:59;;;;;;;82.10;33.80;;;;;;;-0.79;100.00;98647.98;109416;1232;59968;-77
2023/01/22 06:45:25;;;;;;;50.50;26.20;;;;;;;-0.75;100.00;98658.14;109343;1231;63975;-79
2023/01/22 06:47:52;;;;;;;48.00;24.90;;;;;;;-0.71;100.00;98673.20;110868;1231;60493;-77
2023/01/22 06:50:18;;;;;;;38.40;18.40;;;;;;;-0.65;100.00;98692.66;109846;1237;60113;-80
2023/01/22 06:52:44;;;;;;;40.40;20.00;;;;;;;-0.64;100.00;98695.02;109180;1237;60016;-79
2023/01/22 06:55:11;;;;;;;85.10;35.00;;;;;;;-0.71;100.00;98701.95;109366;1232;58926;-78
2023/01/22 06:57:37;;;;;;;53.70;26.30;;;;;;;-0.69;100.00;98697.95;110580;1232;61168;-77
2023/01/22 07:00:05;;;;;;;44.40;23.20;;;;;;;-0.64;100.00;98700.95;109489;1235;60472;-80
2023/01/22 07:02:31;;;;;;;38.90;20.70;;;;;;;-0.66;100.00;98702.23;109213;1237;62715;-77
2023/01/22 07:04:57;;;;;;;34.50;19.30;;;;;;;-0.65;100.00;98707.57;109314;1232;61174;-77
2023/01/22 07:07:24;;;;;;;42.90;22.30;;;;;;;-0.64;100.00;98700.41;109542;1237;61222;-79
2023/01/22 07:09:50;;;;;;;39.40;20.50;;;;;;;-0.68;100.00;98697.34;109590;1232;61130;-79
2023/01/22 07:12:17;;;;;;;67.10;46.80;;;;;;;-0.67;100.00;98697.90;110586;1232;60397;-77
2023/01/22 07:14:43;;;;;;;35.90;18.70;;;;;;;-0.62;100.00;98705.22;109318;1232;59181;-79
2023/01/22 07:17:09;;;;;;;63.10;37.00;;;;;;;-0.57;100.00;98704.61;109793;1232;60852;-77
2023/01/22 07:19:36;;;;;;;36.40;19.70;;;;;;;-0.59;100.00;98708.09;110634;1232;60349;-79
2023/01/22 07:22:02;;;;;;;45.50;22.30;;;;;;;-0.61;100.00;98715.46;109575;1236;59061;-77
2023/01/22 07:24:30;;;;;;;55.70;23.80;;;;;;;-0.57;100.00;98706.09;109783;1232;60170;-79
2023/01/22 07:26:57;;;;;;;47.20;26.20;;;;;;;-0.53;100.00;98703.08;110183;1232;71329;-79
2023/01/22 07:29:23;;;;;;;38.80;19.90;;;;;;;-0.54;100.00;98711.27;110648;1232;60391;-77
2023/01/22 07:31:49;;;;;;;89.40;38.10;;;;;;;-0.57;100.00;98723.30;109561;1233;61105;-77
2023/01/22 07:34:16;;;;;;;82.20;34.90;;;;;;;-0.53;100.00;98726.95;109565;1232;60088;-77
2023/01/22 07:36:42;;;;;;;42.00;19.80;;;;;;;-0.60;100.00;98727.39;109779;1232;60512;-77
2023/01/22 07:39:09;;;;;;;62.30;42.00;;;;;;;-0.63;100.00;98730.97;111105;1232;59046;-79
2023/01/22 07:41:35;;;;;;;50.60;25.80;;;;;;;-0.61;100.00;98725.58;109718;1232;59124;-79
2023/01/22 07:44:02;;;;;;;39.70;22.20;;;;;;;-0.65;100.00;98725.14;109089;1236;61293;-79
2023/01/22 07:46:29;;;;;;;46.30;24.10;;;;;;;-0.60;100.00;98722.98;109872;1232;72532;-77
2023/01/22 07:48:55;;;;;;;31.90;16.30;;;;;;;-0.56;100.00;98731.00;111057;1232;60411;-79
2023/01/22 07:51:21;;;;;;;49.40;22.80;;;;;;;-0.56;100.00;98728.83;109631;1232;60416;-77
2023/01/22 07:53:48;;;;;;;41.30;19.90;;;;;;;-0.51;100.00;98724.69;109079;1232;60566;-80
2023/01/22 07:56:14;;;;;;;38.50;20.80;;;;;;;-0.54;100.00;98731.51;109684;1231;60461;-79
2023/01/22 07:58:40;;;;;;;37.50;21.00;;;;;;;-0.56;100.00;98744.84;111021;1232;58558;-79
2023/01/22 08:01:07;;;;;;;35.60;18.20;;;;;;;-0.56;100.00;98739.43;109724;1231;59057;-77
2023/01/22 08:03:36;;;;;;;33.60;22.30;;;;;;;-0.50;100.00;98743.55;109030;1232;59097;-79
2023/01/22 08:06:09;;;;;;;;;;;;;;;-0.53;100.00;98736.30;109343;1237;60124;-77
2023/01/22 08:08:35;;;;;;;36.30;20.20;;;;;;;-0.48;100.00;98727.34;111106;1232;58375;-77
2023/01/22 08:11:02;;;;;;;49.40;25.90;;;;;;;-0.42;100.00;98723.38;109033;1235;65322;-79
2023/01/22 08:13:28;;;;;;;91.70;52.40;;;;;;;-0.32;100.00;98729.03;109730;1236;59530;-79
2023/01/22 08:15:55;;;;;;;33.90;18.80;;;;;;;-0.33;100.00;98728.05;109893;1231;59022;-79
2023/01/22 08:18:21;;;;;;;31.80;16.70;;;;;;;-0.35;100.00;98728.91;110377;1232;60390;-77
2023/01/22 08:20:47;;;;;;;58.70;28.10;;;;;;;-0.36;100.00;98734.11;109727;1236;60398;-79
2023/01/22 08:23:14;;;;;;;35.60;14.80;;;;;;;-0.28;100.00;98740.28;109687;1232;60166;-77
2023/01/22 08:25:40;;;;;;;55.50;23.60;;;;;;;-0.28;100.00;98740.82;109253;1237;59661;-79
2023/01/22 08:28:07;;;;;;;131.60;78.90;;;;;;;-0.30;100.00;98739.13;110460;1231;59029;-79
2023/01/22 08:30:33;;;;;;;96.80;62.20;;;;;;;-0.28;100.00;98731.05;109395;1235;60052;-79
2023/01/22 08:33:01;;;;;;;54.00;36.90;;;;;;;-0.26;100.00;98731.36;109334;1232;58996;-79
2023/01/22 08:35:28;;;;;;;46.90;34.80;;;;;;;-0.27;100.00;98735.74;109553;1232;73591;-79
2023/01/22 08:37:59;;;;;;;31.30;18.90;;;;;;;-0.20;100.00;98744.95;110653;1237;70957;-79
2023/01/22 08:40:25;;;;;;;29.00;14.50;;;;;;;-0.16;100.00;98759.23;109395;1232;62479;-79
2023/01/22 08:42:52;;;;;;;32.90;17.10;;;;;;;-0.19;100.00;98753.32;109330;1232;60404;-78
2023/01/22 08:45:19;;;;;;;33.10;16.40;;;;;;;-0.18;100.00;98753.06;109245;1231;59978;-78
2023/01/22 08:47:45;;;;;;;34.30;18.70;;;;;;;-0.17;100.00;98755.04;110669;1231;59274;-79
2023/01/22 08:50:12;;;;;;;32.70;17.20;;;;;;;-0.19;100.00;98753.55;110234;1231;72035;-79
2023/01/22 08:52:38;;;;;;;33.80;16.10;;;;;;;-0.22;100.00;98753.65;109105;1232;60333;-77
2023/01/22 08:55:08;;;;;;;130.90;79.20;;;;;;;-0.20;100.00;98758.02;109666;1232;58886;-80
2023/01/22 08:57:35;;;;;;;27.80;16.00;;;;;;;-0.16;100.00;98764.20;110887;1231;58925;-80
2023/01/22 09:00:03;;;;;;;27.70;15.60;;;;;;;-0.11;100.00;98775.02;109606;1236;73815;-79
2023/01/22 09:02:30;;;;;;;37.20;20.60;;;;;;;-0.22;100.00;98773.40;109439;1232;183152;-79
2023/01/22 09:04:56;;;;;;;59.40;34.70;;;;;;;-0.22;100.00;98768.73;109625;1232;58985;-77
2023/01/22 09:07:23;;;;;;;42.20;26.00;;;;;;;-0.18;100.00;98760.98;110705;1232;58848;-79
2023/01/22 09:09:49;;;;;;;48.10;24.50;;;;;;;-0.16;100.00;98759.94;110307;1232;58365;-77
2023/01/22 09:12:16;;;;;;;40.00;20.00;;;;;;;-0.12;100.00;98762.51;109307;1236;60011;-77
2023/01/22 09:14:43;;;;;;;39.70;22.30;;;;;;;-0.03;100.00;98761.88;109945;1232;58588;-77
2023/01/22 09:17:09;;;;;;;45.90;27.00;;;;;;;0.04;100.00;98751.27;109991;1232;59585;-79
2023/01/22 09:19:35;;;;;;;342.50;179.40;;;;;;;0.02;100.00;98752.77;110792;1232;59290;-77
2023/01/22 09:22:05;;;;;;;362.00;176.10;;;;;;;-0.05;100.00;98758.39;109448;1237;59309;-79
2023/01/22 09:24:32;;;;;;;71.90;39.90;;;;;;;0.03;100.00;98764.79;110024;1231;73694;-77
2023/01/22 09:26:58;;;;;;;89.00;42.00;;;;;;;0.03;100.00;98756.88;110273;1236;69837;-79
2023/01/22 09:29:24;;;;;;;42.70;23.80;;;;;;;0.00;100.00;98756.73;111084;1232;58334;-77
2023/01/22 09:31:51;;;;;;;73.30;38.30;;;;;;;0.03;100.00;98756.19;109655;1232;59008;-79
2023/01/22 09:34:17;;;;;;;55.70;28.30;;;;;;;0.09;100.00;98755.48;109398;1232;60160;-78
2023/01/22 09:36:44;;;;;;;50.00;25.70;;;;;;;0.07;100.00;98755.52;109458;1232;59990;-77
2023/01/22 09:39:11;;;;;;;58.40;33.00;;;;;;;0.12;100.00;98744.02;110775;1236;62654;-79
2023/01/22 09:41:38;;;;;;;63.50;34.20;;;;;;;0.26;100.00;98748.50;109744;1232;61270;-77
2023/01/22 09:44:09;;;;;;;35.70;20.40;;;;;;;0.41;100.00;98757.44;108973;1236;60601;-77
2023/01/22 09:46:54;;;;;;;43.00;24.70;;;;;;;0.46;100.00;98756.63;109085;1232;61189;-77
2023/01/22 09:49:30;;;;;;;88.60;47.30;;;;;;;0.34;100.00;98757.78;110785;1235;72528;-77
2023/01/22 09:51:58;;;;;;;62.90;32.00;;;;;;;0.31;100.00;98754.85;109300;1236;72197;-77
2023/01/22 09:54:24;;;;;;;54.40;30.20;;;;;;;0.31;100.00;98754.36;109356;1232;72460;-77
2023/01/22 09:56:53;;;;;;;39.10;22.30;;;;;;;0.41;100.00;98757.54;109535;1232;60308;-79
2023/01/22 09:59:21;;;;;;;48.40;28.30;;;;;;;0.44;100.00;98771.55;110266;1232;60103;-79
2023/01/22 10:01:53;;;;;;;37.30;17.50;;;;;;;0.35;100.00;98770.83;109299;1232;72549;-79
2023/01/22 10:04:29;;;;;;;109.80;61.50;;;;;;;0.17;100.00;98771.29;109257;1232;69809;-77
2023/01/22 10:06:56;;;;;;;41.20;20.10;;;;;;;0.08;100.00;98762.90;110130;1231;71472;-79
2023/01/22 10:09:23;;;;;;;62.10;33.60;;;;;;;-0.09;100.00;98760.40;110978;1231;59965;-77
2023/01/22 10:11:51;;;;;;;42.70;25.50;;;;;;;-0.05;100.00;98757.80;109482;1236;60909;-76
2023/01/22 10:14:20;;;;;;;100.20;49.90;;;;;;;0.06;100.00;98759.77;109404;1232;74197;-79
2023/01/22 10:16:47;;;;;;;79.70;44.80;;;;;;;0.07;100.00;98766.59;109580;1235;71046;-79
2023/01/22 10:19:17;;;;;;;98.20;55.30;;;;;;;0.16;100.00;98759.76;111047;1232;72611;-77
2023/01/22 10:21:45;;;;;;;62.40;31.70;;;;;;;0.22;100.00;98759.67;109734;1232;58987;-77
2023/01/22 10:24:12;;;;;;;54.60;30.40;;;;;;;0.19;100.00;98767.20;109282;1232;59873;-79
2023/01/22 10:26:49;;;;;;;41.80;25.70;;;;;;;0.23;100.00;98762.80;109497;1231;60575;-79
2023/01/22 10:29:32;;;;;;;40.40;21.40;;;;;;;0.28;100.00;98769.89;110602;1234;69370;-80
2023/01/22 10:32:00;;;;;;;49.10;25.30;;;;;;;0.32;100.00;98767.97;109575;1231;72366;-77
2023/01/22 10:34:33;;;;;;;36.70;21.00;;;;;;;0.34;100.00;98762.25;109136;1231;60060;-77
2023/01/22 10:37:01;;;;;;;32.20;15.80;;;;;;;0.40;100.00;98767.20;109736;1232;60054;-77
2023/01/22 10:39:38;;;;;;;35.40;19.60;;;;;;;0.37;100.00;98765.51;110925;1232;73617;-79
2023/01/22 10:42:04;;;;;;;35.60;16.00;;;;;;;0.29;100.00;98768.95;109232;1232;69812;-77
2023/01/22 10:44:31;;;;;;;54.60;24.90;;;;;;;0.32;100.00;98769.41;109081;1236;59095;-77
2023/01/22 10:47:07;;;;;;;43.20;21.40;;;;;;;0.29;100.00;98775.15;109600;1231;61129;-77
2023/01/22 10:49:33;;;;;;;37.50;17.50;;;;;;;0.39;100.00;98783.41;110565;1231;59984;-77
2023/01/22 10:52:06;;;;;;;31.70;16.10;;;;;;;0.48;100.00;98788.34;109887;1232;60516;-79
2023/01/22 10:54:44;;;;;;;33.70;16.10;;;;;;;0.49;100.00;98789.50;109101;1237;70968;-77
2023/01/22 10:57:21;;;;;;;36.00;16.80;;;;;;;0.43;100.00;98786.14;110261;1231;70346;-79
2023/01/22 10:59:48;;;;;;;40.00;18.50;;;;;;;0.31;100.00;98783.60;110765;1231;60447;-77
2023/01/22 11:02:22;;;;;;;31.00;16.20;;;;;;;0.18;100.00;98782.48;109296;1231;59859;-77
2023/01/22 11:04:49;;;;;;;38.40;18.00;;;;;;;0.16;100.00;98784.97;109268;1236;73662;-77
2023/01/22 11:07:20;;;;;;;36.60;17.80;;;;;;;0.09;100.00;98780.58;110171;1231;60403;-77
2023/01/22 11:09:52;;;;;;;42.30;24.00;;;;;;;0.07;100.00;98787.66;110149;1232;63830;-79
2023/01/22 11:12:34;;;;;;;37.40;20.60;;;;;;;0.13;100.00;98791.73;109163;1231;60532;-79